createdAt,value
2018-11-22T12:17:22.507Z,13.90
2018-11-22T12:22:42.312Z,13.60
2018-11-22T12:28:04.968Z,14.40
2018-11-22T12:33:28.652Z,14.17
2018-11-22T12:38:47.325Z,13.60
2018-11-22T12:44:06.354Z,13.50
2018-11-22T12:49:24.867Z,12.93
2018-11-22T12:54:43.403Z,13.40
2018-11-22T13:00:01.913Z,13.13
2018-11-22T13:05:20.847Z,14.23
2018-11-22T13:10:39.360Z,13.43
2018-11-22T13:15:57.892Z,14.15
2018-11-22T13:21:16.416Z,13.93
2018-11-22T13:26:34.972Z,14.37
2018-11-22T13:31:53.484Z,15.20
2018-11-22T13:37:11.984Z,14.40
2018-11-22T13:42:30.481Z,15.20
2018-11-22T13:47:50.187Z,14.27
2018-11-22T13:53:09.028Z,14.40
2018-11-22T13:58:27.525Z,13.80
2018-11-22T14:03:45.996Z,15.13
2018-11-22T14:09:05.873Z,15.57
2018-11-22T14:14:24.537Z,15.03
2018-11-22T14:19:43.097Z,15.80
2018-11-22T14:25:01.598Z,15.07
2018-11-22T14:30:22.668Z,14.77
2018-11-22T14:35:41.207Z,15.30
2018-11-22T14:40:59.715Z,15.77
2018-11-22T14:46:18.212Z,15.93
2018-11-22T14:51:39.988Z,14.53
2018-11-22T14:56:58.491Z,15.37
2018-11-22T15:02:17.032Z,15.45
2018-11-22T15:07:35.572Z,15.73
2018-11-22T15:12:54.177Z,15.57
2018-11-22T15:18:12.677Z,15.70
2018-11-22T15:23:31.224Z,15.67
2018-11-22T15:28:49.760Z,16.77
2018-11-22T15:34:08.248Z,17.03
2018-11-22T15:39:26.816Z,17.40
2018-11-22T15:44:45.558Z,15.57
2018-11-22T15:50:04.714Z,16.37
2018-11-22T15:55:24.270Z,15.37
2018-11-22T16:00:42.833Z,15.33
2018-11-22T16:06:01.392Z,16.37
2018-11-22T16:11:19.949Z,16.83
2018-11-22T16:16:38.456Z,16.80
2018-11-22T16:21:56.976Z,16.57
2018-11-22T16:27:15.628Z,16.50
2018-11-22T16:32:34.153Z,16.97
2018-11-22T16:37:52.764Z,17.20
2018-11-22T16:43:11.869Z,17.00
2018-11-22T16:48:30.496Z,16.13
2018-11-22T16:53:49.140Z,15.55
2018-11-22T16:59:07.704Z,16.63
2018-11-22T17:04:26.231Z,15.57
2018-11-22T17:09:44.785Z,15.13
2018-11-22T17:15:03.607Z,16.43
2018-11-22T17:20:23.045Z,15.80
2018-11-22T17:25:41.590Z,17.37
2018-11-22T17:31:00.093Z,16.83
2018-11-22T17:36:18.617Z,16.67
2018-11-22T17:41:37.196Z,17.23
2018-11-22T17:46:55.793Z,16.00
2018-11-22T17:52:14.952Z,15.17
2018-11-22T17:57:33.583Z,15.87
2018-11-22T18:02:53.224Z,17.17
2018-11-22T18:08:11.769Z,16.47
2018-11-22T18:13:30.299Z,17.10
2018-11-22T18:18:48.892Z,16.73
2018-11-22T18:24:07.380Z,22.60
2018-11-22T18:29:25.934Z,23.13
2018-11-22T18:34:44.483Z,18.10
2018-11-22T18:40:03.171Z,16.73
2018-11-22T18:45:27.278Z,16.30
2018-11-22T18:50:47.061Z,17.87
2018-11-22T18:56:05.340Z,18.57
2018-11-22T19:01:23.867Z,18.03
2018-11-22T19:06:42.383Z,18.23
2018-11-22T19:12:01.035Z,18.87
2018-11-22T19:17:19.704Z,18.13
2018-11-22T19:22:38.212Z,16.17
2018-11-22T19:27:57.517Z,17.60
2018-11-22T19:33:17.778Z,16.63
2018-11-22T19:38:36.369Z,17.10
2018-11-22T19:43:54.888Z,17.10
2018-11-22T19:49:13.480Z,16.63
2018-11-22T19:54:32.045Z,17.73
2018-11-22T19:59:50.677Z,17.00
2018-11-22T20:05:10.976Z,17.40
2018-11-22T20:10:34.699Z,15.83
2018-11-22T20:15:53.393Z,17.43
2018-11-22T20:21:11.935Z,16.57
2018-11-22T20:26:30.467Z,16.37
2018-11-22T20:31:49.157Z,16.17
2018-11-22T20:37:07.915Z,17.33
2018-11-22T20:42:26.502Z,15.83
2018-11-22T20:47:46.061Z,15.85
2018-11-22T20:53:04.661Z,16.03
2018-11-22T20:58:23.258Z,15.57
2018-11-22T21:03:41.760Z,15.50
2018-11-22T21:09:00.403Z,16.63
2018-11-22T21:14:18.934Z,17.17
2018-11-22T21:19:37.406Z,15.37
2018-11-22T21:24:55.908Z,15.97
2018-11-22T21:30:17.993Z,15.80
2018-11-22T21:35:36.956Z,16.10
2018-11-22T21:40:55.436Z,14.80
2018-11-22T21:46:14.117Z,15.32
2018-11-22T21:51:39.347Z,15.30
2018-11-22T21:56:51.888Z,17.17
2018-11-22T22:02:10.412Z,16.13
2018-11-22T22:07:28.916Z,15.93
2018-11-22T22:12:47.454Z,15.80
2018-11-22T22:18:07.288Z,14.50
2018-11-22T22:23:25.773Z,15.30
2018-11-22T22:28:44.319Z,15.70
2018-11-22T22:34:02.852Z,17.23
2018-11-22T22:39:21.372Z,17.10
2018-11-22T22:44:39.884Z,14.90
2018-11-22T22:49:58.356Z,15.17
2018-11-22T22:55:16.868Z,15.67
2018-11-22T23:00:41.958Z,16.47
2018-11-22T23:06:00.466Z,18.57
2018-11-22T23:11:19.065Z,15.93
2018-11-22T23:16:37.669Z,15.87
2018-11-22T23:21:56.171Z,15.43
2018-11-22T23:27:14.692Z,15.03
2018-11-22T23:32:33.194Z,15.47
2018-11-22T23:37:52.003Z,15.90
2018-11-22T23:43:10.507Z,16.20
2018-11-22T23:48:29.159Z,16.32
2018-11-22T23:53:47.643Z,15.80
2018-11-22T23:59:06.308Z,15.53
